createdAt,value
2019-03-05T00:00:39.179Z,99539.02
2019-03-05T00:03:07.667Z,99539.03
2019-03-05T00:05:36.134Z,99548.34
2019-03-05T00:08:04.667Z,99539.05
2019-03-05T00:10:33.168Z,99540.31
2019-03-05T00:13:01.553Z,99534.79
2019-03-05T00:15:31.150Z,99537.74
2019-03-05T00:17:59.570Z,99537.30
2019-03-05T00:20:28.052Z,99539.85
2019-03-05T00:22:56.440Z,99535.61
2019-03-05T00:25:27.895Z,99532.23
2019-03-05T00:27:59.338Z,99547.48
2019-03-05T00:30:33.359Z,99533.91
2019-03-05T00:33:16.652Z,99546.58
2019-03-05T00:36:04.928Z,99543.23
2019-03-05T00:38:51.331Z,99549.16
2019-03-05T00:41:39.524Z,99546.16
2019-03-05T00:44:27.209Z,99558.45
2019-03-05T00:47:13.606Z,99549.53
2019-03-05T00:50:01.363Z,99549.11
2019-03-05T00:52:56.804Z,99548.27
2019-03-05T00:55:28.247Z,99557.17
2019-03-05T00:57:59.697Z,99568.18
2019-03-05T01:00:59.835Z,99564.38
2019-03-05T01:03:43.111Z,99555.95
2019-03-05T01:06:25.386Z,99550.86
2019-03-05T01:08:56.134Z,99559.71
2019-03-05T01:11:25.660Z,99565.22
2019-03-05T01:13:54.285Z,99562.25
2019-03-05T01:16:31.002Z,99570.30
2019-03-05T01:18:59.384Z,99560.56
2019-03-05T01:21:27.926Z,99576.67
2019-03-05T01:23:56.343Z,99584.72
2019-03-05T01:26:24.879Z,99583.03
2019-03-05T01:28:53.275Z,99581.31
2019-03-05T01:31:23.505Z,99572.39
2019-03-05T01:34:08.845Z,99581.28
2019-03-05T01:36:38.913Z,99578.73
2019-03-05T01:39:26.473Z,99580.36
2019-03-05T01:41:55.004Z,99585.42
2019-03-05T01:44:23.364Z,99582.86
2019-03-05T01:46:51.923Z,99593.00
2019-03-05T01:49:20.312Z,99605.25
2019-03-05T01:51:48.720Z,99606.42
2019-03-05T01:54:17.120Z,99607.65
2019-03-05T01:56:45.579Z,99607.94
2019-03-05T01:59:13.977Z,99610.84
2019-03-05T02:01:42.449Z,99606.98
2019-03-05T02:04:10.919Z,99613.69
2019-03-05T02:06:39.431Z,99614.06
2019-03-05T02:09:08.953Z,99605.14
2019-03-05T02:11:37.427Z,99611.90
2019-03-05T02:14:05.981Z,99609.70
2019-03-05T02:16:34.461Z,99611.37
2019-03-05T02:19:34.166Z,99605.84
2019-03-05T02:22:02.565Z,99609.20
2019-03-05T02:25:02.765Z,99609.20
2019-03-05T02:27:40.262Z,99606.23
2019-03-05T02:30:17.580Z,99603.25
2019-03-05T02:33:06.947Z,99605.80
2019-03-05T02:35:44.064Z,99607.08
2019-03-05T02:38:27.261Z,99619.34
2019-03-05T02:41:04.589Z,99629.50
2019-03-05T02:43:44.807Z,99622.73
2019-03-05T02:46:31.409Z,99615.52
2019-03-05T02:49:11.864Z,99618.46
2019-03-05T02:51:55.282Z,99618.43
2019-03-05T02:54:35.750Z,99618.43
2019-03-05T02:57:09.495Z,99620.97
2019-03-05T02:59:38.420Z,99620.97
2019-03-05T03:02:24.156Z,99622.67
2019-03-05T03:05:00.028Z,99613.41
2019-03-05T03:07:29.398Z,99613.43
2019-03-05T03:10:21.499Z,99617.69
2019-03-05T03:12:50.046Z,99623.20
2019-03-05T03:15:18.683Z,99623.23
2019-03-05T03:17:47.443Z,99625.83
2019-03-05T03:20:16.597Z,99617.80
2019-03-05T03:22:44.981Z,99619.52
2019-03-05T03:25:17.814Z,99622.89
2019-03-05T03:27:46.318Z,99613.58
2019-03-05T03:30:16.851Z,99617.81
2019-03-05T03:32:45.350Z,99615.27
2019-03-05T03:35:15.374Z,99616.55
2019-03-05T03:37:43.935Z,99614.00
2019-03-05T03:40:15.242Z,99629.64
2019-03-05T03:42:43.774Z,99627.10
2019-03-05T03:45:17.743Z,99626.20
2019-03-05T03:47:46.193Z,99637.22
2019-03-05T03:50:14.756Z,99639.31
2019-03-05T03:52:43.215Z,99641.41
2019-03-05T03:55:14.033Z,99639.26
2019-03-05T03:57:42.683Z,99651.14
2019-03-05T04:00:14.363Z,99640.11
2019-03-05T04:02:42.923Z,99652.38
2019-03-05T04:05:11.452Z,99652.78
2019-03-05T04:07:39.942Z,99652.78
2019-03-05T04:10:11.072Z,99639.21
2019-03-05T04:12:39.475Z,99648.94
2019-03-05T04:15:11.726Z,99647.66
2019-03-05T04:17:40.679Z,99640.39
2019-03-05T04:20:12.006Z,99638.24
2019-03-05T04:22:40.388Z,99641.53
2019-03-05T04:25:09.929Z,99636.39
2019-03-05T04:27:38.380Z,99638.03
2019-03-05T04:30:14.476Z,99643.03
2019-03-05T04:32:42.886Z,99633.28
2019-03-05T04:35:14.217Z,99635.82
2019-03-05T04:37:42.599Z,99637.92
2019-03-05T04:40:11.835Z,99631.59
2019-03-05T04:42:40.258Z,99640.06
2019-03-05T04:45:32.723Z,99643.45
2019-03-05T04:48:01.144Z,99652.38
2019-03-05T04:50:47.425Z,99640.14
2019-03-05T04:53:15.840Z,99646.08
2019-03-05T04:55:44.224Z,99634.30
2019-03-05T04:58:12.645Z,99636.45
2019-03-05T05:00:41.039Z,99631.83
2019-03-05T05:03:09.460Z,99637.77
2019-03-05T05:05:37.859Z,99638.64
2019-03-05T05:08:06.337Z,99640.39
2019-03-05T05:10:34.769Z,99640.45
2019-03-05T05:13:03.205Z,99636.25
2019-03-05T05:15:33.623Z,99639.66
2019-03-05T05:18:02.453Z,99640.13
2019-03-05T05:20:30.950Z,99641.86
2019-03-05T05:22:59.413Z,99638.13
2019-03-05T05:25:27.805Z,99634.75
2019-03-05T05:27:56.493Z,99642.80
2019-03-05T05:30:30.229Z,99639.03
2019-03-05T05:32:58.628Z,99642.86
2019-03-05T05:35:27.117Z,99635.22
2019-03-05T05:37:55.572Z,99633.11
2019-03-05T05:40:26.424Z,99642.00
2019-03-05T05:42:54.966Z,99651.73
2019-03-05T05:45:26.495Z,99648.76
2019-03-05T05:47:54.917Z,99658.48
2019-03-05T05:50:23.304Z,99647.44
2019-03-05T05:52:51.726Z,99652.88
2019-03-05T05:55:20.154Z,99650.28
2019-03-05T05:57:48.618Z,99661.23
2019-03-05T06:00:17.653Z,99654.45
2019-03-05T06:02:46.046Z,99652.23
2019-03-05T06:05:14.526Z,99659.78
2019-03-05T06:07:42.949Z,99658.88
2019-03-05T06:10:12.994Z,99658.34
2019-03-05T06:12:41.426Z,99660.84
2019-03-05T06:15:17.220Z,99653.61
2019-03-05T06:17:45.714Z,99669.22
2019-03-05T06:20:16.393Z,99661.16
2019-03-05T06:22:44.798Z,99664.03
2019-03-05T06:25:17.236Z,99666.56
2019-03-05T06:27:45.662Z,99668.23
2019-03-05T06:30:17.893Z,99677.95
2019-03-05T06:32:46.434Z,99664.39
2019-03-05T06:35:14.971Z,99669.42
2019-03-05T06:37:43.384Z,99674.48
2019-03-05T06:40:17.569Z,99677.83
2019-03-05T06:42:45.975Z,99672.64
2019-03-05T06:45:16.534Z,99676.00
2019-03-05T06:47:44.933Z,99678.48
2019-03-05T06:50:18.486Z,99686.45
2019-03-05T06:52:46.969Z,99683.53
2019-03-05T06:55:16.431Z,99694.50
2019-03-05T06:57:44.975Z,99697.83
2019-03-05T07:00:21.245Z,99694.34
2019-03-05T07:02:49.749Z,99697.66
2019-03-05T07:05:55.041Z,99704.78
2019-03-05T07:08:23.462Z,99710.69
2019-03-05T07:11:11.522Z,99706.31
2019-03-05T07:13:39.950Z,99702.03
2019-03-05T07:16:11.424Z,99710.91
2019-03-05T07:18:42.799Z,99711.34
2019-03-05T07:21:42.724Z,99716.90
2019-03-05T07:24:17.067Z,99714.75
2019-03-05T07:26:45.464Z,99717.69
2019-03-05T07:29:13.896Z,99718.17
2019-03-05T07:31:42.319Z,99728.66
2019-03-05T07:34:12.358Z,99733.67
2019-03-05T07:36:40.838Z,99723.92
2019-03-05T07:39:12.463Z,99729.88
2019-03-05T07:41:40.841Z,99732.41
2019-03-05T07:44:09.259Z,99732.82
2019-03-05T07:46:37.709Z,99739.06
2019-03-05T07:49:06.125Z,99743.19
2019-03-05T07:51:34.533Z,99750.36
2019-03-05T07:54:02.997Z,99749.45
2019-03-05T07:56:31.476Z,99747.33
2019-03-05T07:58:59.862Z,99753.25
2019-03-05T08:01:28.263Z,99754.88
2019-03-05T08:03:56.737Z,99762.92
2019-03-05T08:06:25.126Z,99761.33
2019-03-05T08:09:30.186Z,99761.88
2019-03-05T08:12:07.461Z,99756.70
2019-03-05T08:14:56.156Z,99758.40
2019-03-05T08:17:25.707Z,99759.47
2019-03-05T08:19:54.237Z,99769.17
2019-03-05T08:22:22.783Z,99768.81
2019-03-05T08:24:51.228Z,99773.08
2019-03-05T08:27:19.642Z,99776.59
2019-03-05T08:29:48.177Z,99781.64
2019-03-05T08:32:16.625Z,99782.97
2019-03-05T08:34:45.102Z,99780.09
2019-03-05T08:37:13.701Z,99793.23
2019-03-05T08:39:42.174Z,99796.67
2019-03-05T08:42:10.594Z,99807.34
2019-03-05T08:44:49.636Z,99808.15
2019-03-05T08:47:09.287Z,99812.28
2019-03-05T08:49:37.674Z,99815.27
2019-03-05T08:52:06.204Z,99827.09
2019-03-05T08:54:34.640Z,99822.95
2019-03-05T08:57:03.037Z,99825.52
2019-03-05T08:59:32.666Z,99826.28
2019-03-05T09:02:01.419Z,99834.86
2019-03-05T09:04:29.778Z,99842.08
2019-03-05T09:06:58.262Z,99842.52
2019-03-05T09:09:26.727Z,99829.89
2019-03-05T09:11:55.517Z,99837.55
2019-03-05T09:14:23.944Z,99833.33
2019-03-05T09:16:52.357Z,99835.58
2019-03-05T09:19:20.888Z,99834.80
2019-03-05T09:21:49.488Z,99826.84
2019-03-05T09:24:17.841Z,99831.09
2019-03-05T09:26:51.335Z,99837.52
2019-03-05T09:29:16.632Z,99832.87
2019-03-05T09:31:45.108Z,99843.91
2019-03-05T09:34:13.517Z,99838.83
2019-03-05T09:36:50.390Z,99842.27
2019-03-05T09:39:13.112Z,99841.48
2019-03-05T09:41:41.611Z,99843.30
2019-03-05T09:44:10.001Z,99840.39
2019-03-05T09:46:38.413Z,99839.63
2019-03-05T09:49:06.801Z,99839.69
2019-03-05T09:51:35.269Z,99844.03
2019-03-05T09:54:03.823Z,99845.43
2019-03-05T09:56:32.252Z,99846.75
2019-03-05T09:59:00.718Z,99843.88
2019-03-05T10:01:29.262Z,99851.59
2019-03-05T10:03:57.723Z,99843.61
2019-03-05T10:06:26.140Z,99837.41
2019-03-05T10:08:54.572Z,99847.25
2019-03-05T10:11:23.420Z,99840.17
2019-03-05T10:13:51.861Z,99843.51
2019-03-05T10:16:20.422Z,99837.62
2019-03-05T10:18:48.864Z,99844.85
2019-03-05T10:21:17.399Z,99839.84
2019-03-05T10:23:46.620Z,99845.00
2019-03-05T10:26:15.203Z,99852.67
2019-03-05T10:28:43.662Z,99843.80
2019-03-05T10:31:12.520Z,99845.57
2019-03-05T10:33:40.994Z,99848.60
2019-03-05T10:36:09.397Z,99848.31
2019-03-05T10:38:37.951Z,99846.69
2019-03-05T10:41:06.447Z,99850.15
2019-03-05T10:43:35.084Z,99850.23
2019-03-05T10:46:03.539Z,99852.00
2019-03-05T10:48:31.955Z,99863.08
2019-03-05T10:51:00.415Z,99857.13
2019-03-05T10:53:29.236Z,99859.69
2019-03-05T10:55:57.616Z,99860.55
2019-03-05T10:58:33.972Z,99854.66
2019-03-05T11:00:56.820Z,99864.06
2019-03-05T11:03:29.513Z,99862.47
2019-03-05T11:05:58.063Z,99863.03
2019-03-05T11:08:27.101Z,99866.49
2019-03-05T11:10:57.035Z,99877.53
2019-03-05T11:13:25.553Z,99868.61
2019-03-05T11:16:01.440Z,99873.64
2019-03-05T11:18:30.228Z,99866.44
2019-03-05T11:20:58.888Z,99868.61
2019-03-05T11:23:27.302Z,99876.28
2019-03-05T11:25:55.781Z,99862.30
2019-03-05T11:28:24.246Z,99878.48
2019-03-05T11:30:52.812Z,99880.63
2019-03-05T11:33:21.339Z,99880.19
2019-03-05T11:35:50.105Z,99877.23
2019-03-05T11:38:18.753Z,99876.08
2019-03-05T11:40:47.250Z,99884.19
2019-03-05T11:43:17.268Z,99879.14
2019-03-05T11:45:46.199Z,99883.41
2019-03-05T11:48:15.970Z,99904.27
2019-03-05T11:50:44.901Z,99889.83
2019-03-05T11:53:13.471Z,99894.13
2019-03-05T11:55:42.017Z,99896.27
2019-03-05T11:58:10.438Z,99906.56
2019-03-05T12:00:58.904Z,99892.18
2019-03-05T12:03:27.445Z,99906.28
2019-03-05T12:05:55.848Z,99900.77
2019-03-05T12:08:24.312Z,99907.91
2019-03-05T12:10:52.786Z,99912.16
2019-03-05T12:13:21.247Z,99918.16
2019-03-05T12:15:49.722Z,99919.86
2019-03-05T12:18:18.187Z,99916.78
2019-03-05T12:20:46.678Z,99923.55
2019-03-05T12:23:15.072Z,99921.77
2019-03-05T12:25:43.626Z,99569.36
2019-03-05T12:28:12.046Z,99932.28
2019-03-05T12:30:40.562Z,99931.30
2019-03-05T12:33:09.276Z,99931.18
2019-03-05T12:35:37.762Z,99935.11
2019-03-05T12:38:06.246Z,99929.61
2019-03-05T12:40:34.705Z,99931.33
2019-03-05T12:43:03.276Z,99944.95
2019-03-05T12:45:31.742Z,99936.96
2019-03-05T12:48:00.324Z,99928.89
2019-03-05T12:50:33.781Z,99922.59
2019-03-05T12:53:02.338Z,99932.81
2019-03-05T12:55:30.860Z,99931.66
2019-03-05T12:57:59.321Z,99931.68
2019-03-05T13:00:29.891Z,99935.14
2019-03-05T13:02:58.452Z,99938.56
2019-03-05T13:05:26.935Z,99930.64
2019-03-05T13:07:56.391Z,99929.08
2019-03-05T13:10:27.164Z,99937.66
2019-03-05T13:12:55.804Z,99935.11
2019-03-05T13:15:32.713Z,99936.95
2019-03-05T13:18:01.224Z,99939.94
2019-03-05T13:20:29.695Z,99941.70
2019-03-05T13:22:58.229Z,99937.58
2019-03-05T13:25:28.490Z,99933.70
2019-03-05T13:27:57.617Z,99936.73
2019-03-05T13:30:28.432Z,99938.80
2019-03-05T13:32:59.062Z,99948.92
2019-03-05T13:35:30.503Z,99944.88
2019-03-05T13:38:03.240Z,99934.13
2019-03-05T13:40:34.199Z,99940.79
2019-03-05T13:43:03.352Z,99957.66
2019-03-05T13:45:31.759Z,99971.60
2019-03-05T13:48:06.231Z,99958.45
2019-03-05T13:50:54.004Z,99970.20
2019-03-05T13:53:40.386Z,99984.52
2019-03-05T13:56:43.996Z,99989.53
2019-03-05T13:59:24.415Z,99995.48
2019-03-05T14:01:53.174Z,99997.79
2019-03-05T14:04:36.533Z,99993.48
2019-03-05T14:07:36.554Z,99996.41
2019-03-05T14:10:06.125Z,99993.98
2019-03-05T14:12:34.603Z,99995.23
2019-03-05T14:15:03.175Z,100003.75
2019-03-05T14:17:32.335Z,99995.50
2019-03-05T14:20:00.810Z,100006.05
2019-03-05T14:22:29.345Z,100012.37
2019-03-05T14:25:02.300Z,100011.48
2019-03-05T14:27:27.904Z,100014.49
2019-03-05T14:29:56.330Z,100024.76
2019-03-05T14:32:24.892Z,100014.54
2019-03-05T14:34:56.330Z,100017.05
2019-03-05T14:37:25.374Z,100011.66
2019-03-05T14:39:53.952Z,100003.16
2019-03-05T14:42:22.421Z,100018.48
2019-03-05T14:44:50.861Z,100017.56
2019-03-05T14:47:19.428Z,100023.44
2019-03-05T14:49:47.817Z,100024.78
2019-03-05T14:52:18.935Z,100032.18
2019-03-05T14:54:47.372Z,100028.41
2019-03-05T14:57:15.830Z,100023.30
2019-03-05T14:59:44.298Z,100036.86
2019-03-05T15:02:12.807Z,100028.27
2019-03-05T15:04:41.255Z,100032.88
2019-03-05T15:07:09.732Z,100047.32
2019-03-05T15:09:38.147Z,100042.55
2019-03-05T15:12:06.592Z,100040.84
2019-03-05T15:14:34.968Z,100044.76
2019-03-05T15:17:03.478Z,100040.17
2019-03-05T15:19:34.655Z,100035.58
2019-03-05T15:22:02.932Z,100028.78
2019-03-05T15:24:31.371Z,100029.25
2019-03-05T15:26:59.785Z,100028.42
2019-03-05T15:29:28.373Z,100032.68
2019-03-05T15:31:56.834Z,100033.53
2019-03-05T15:34:25.188Z,100030.12
2019-03-05T15:36:53.751Z,100030.96
2019-03-05T15:39:22.241Z,100027.98
2019-03-05T15:41:50.659Z,100029.69
2019-03-05T15:44:19.124Z,100037.36
2019-03-05T15:46:47.558Z,100034.38
2019-03-05T15:49:15.958Z,100037.78
2019-03-05T15:51:44.364Z,100039.05
2019-03-05T15:54:12.862Z,100040.33
2019-03-05T15:56:41.298Z,100046.25
2019-03-05T15:59:09.719Z,100050.92
2019-03-05T16:01:38.094Z,100047.08
2019-03-05T16:04:06.502Z,100045.78
2019-03-05T16:06:35.344Z,100049.62
2019-03-05T16:09:05.304Z,100051.33
2019-03-05T16:11:35.059Z,100049.65
2019-03-05T16:14:03.650Z,100059.48
2019-03-05T16:16:32.289Z,100053.11
2019-03-05T16:19:00.689Z,100053.10
2019-03-05T16:21:29.113Z,100061.16
2019-03-05T16:24:01.759Z,100058.17
2019-03-05T16:26:27.871Z,100063.27
2019-03-05T16:28:56.345Z,100061.57
2019-03-05T16:31:32.733Z,100067.53
2019-03-05T16:34:09.497Z,100073.06
2019-03-05T16:36:52.688Z,100066.67
2019-03-05T16:39:37.879Z,100077.72
2019-03-05T16:42:08.088Z,100085.75
2019-03-05T16:44:50.297Z,100077.63
2019-03-05T16:47:26.808Z,100089.47
2019-03-05T16:49:59.432Z,100082.64
2019-03-05T16:52:35.777Z,100091.94
2019-03-05T16:55:13.951Z,100092.75
2019-03-05T16:57:44.055Z,100089.34
2019-03-05T17:00:26.343Z,100093.95
2019-03-05T17:03:05.678Z,100108.83
2019-03-05T17:05:52.183Z,100120.72
2019-03-05T17:08:24.934Z,100116.88
2019-03-05T17:11:11.550Z,100111.73
2019-03-05T17:13:39.950Z,100117.64
2019-03-05T17:16:08.522Z,100126.08
2019-03-05T17:18:37.094Z,100125.62
2019-03-05T17:21:05.488Z,100123.84
2019-03-05T17:23:33.974Z,100131.92
2019-03-05T17:26:02.448Z,100136.16
2019-03-05T17:28:30.866Z,100134.42
2019-03-05T17:30:59.589Z,100140.80
2019-03-05T17:33:28.014Z,100136.92
2019-03-05T17:35:56.492Z,100137.27
2019-03-05T17:38:25.054Z,100143.59
2019-03-05T17:40:53.456Z,100149.54
2019-03-05T17:43:22.044Z,100148.27
2019-03-05T17:45:50.472Z,100158.47
2019-03-05T17:48:18.910Z,100157.98
2019-03-05T17:50:47.344Z,100164.30
2019-03-05T17:53:15.751Z,100170.61
2019-03-05T17:55:44.450Z,100172.67
2019-03-05T17:58:12.861Z,100169.67
2019-03-05T18:00:42.970Z,100172.25
2019-03-05T18:03:11.393Z,100174.41
2019-03-05T18:05:39.801Z,100185.83
2019-03-05T18:08:08.524Z,100192.95
2019-03-05T18:10:36.930Z,100195.92
2019-03-05T18:13:05.394Z,100191.23
2019-03-05T18:15:33.816Z,100191.24
2019-03-05T18:18:02.370Z,100195.91
2019-03-05T18:20:31.038Z,100197.98
2019-03-05T18:22:59.427Z,100200.06
2019-03-05T18:25:27.835Z,100208.91
2019-03-05T18:27:56.350Z,100212.30
2019-03-05T18:30:29.982Z,100217.41
2019-03-05T18:32:58.509Z,100216.92
2019-03-05T18:35:26.993Z,100216.89
2019-03-05T18:37:55.573Z,100226.64
2019-03-05T18:40:24.944Z,100232.18
2019-03-05T18:42:53.857Z,100230.94
2019-03-05T18:45:30.037Z,100228.02
2019-03-05T18:47:58.637Z,100231.42
2019-03-05T18:50:27.140Z,100237.75
2019-03-05T18:52:59.909Z,100234.78
2019-03-05T18:55:28.764Z,100228.36
2019-03-05T18:57:57.331Z,100230.05
2019-03-05T19:00:30.824Z,100229.59
2019-03-05T19:03:05.156Z,100230.39
2019-03-05T19:05:33.649Z,100223.63
2019-03-05T19:08:02.069Z,100226.95
2019-03-05T19:10:30.625Z,100234.11
2019-03-05T19:12:59.121Z,100237.83
2019-03-05T19:15:28.972Z,100244.06
2019-03-05T19:17:57.466Z,100256.31
2019-03-05T19:20:30.573Z,100250.28
2019-03-05T19:22:59.972Z,100249.34
2019-03-05T19:25:43.109Z,100254.00
2019-03-05T19:28:11.793Z,100256.45
2019-03-05T19:30:42.618Z,100253.82
2019-03-05T19:33:11.058Z,100258.42
2019-03-05T19:35:39.593Z,100267.72
2019-03-05T19:38:08.178Z,100264.72
2019-03-05T19:40:40.940Z,100260.45
2019-03-05T19:43:09.420Z,100262.09
2019-03-05T19:45:37.893Z,100264.16
2019-03-05T19:48:06.646Z,100267.51
2019-03-05T19:50:35.211Z,100272.13
2019-03-05T19:53:05.466Z,100269.53
2019-03-05T19:55:33.942Z,100273.34
2019-03-05T19:58:09.070Z,100268.21
2019-03-05T20:00:44.594Z,100265.64
2019-03-05T20:03:13.097Z,100262.62
2019-03-05T20:05:41.655Z,100260.87
2019-03-05T20:08:10.063Z,100262.11
2019-03-05T20:10:39.121Z,100269.61
2019-03-05T20:13:07.576Z,100269.90
2019-03-05T20:15:36.096Z,100269.02
2019-03-05T20:18:04.628Z,100269.73
2019-03-05T20:20:33.132Z,100268.85
2019-03-05T20:23:01.544Z,100264.59
2019-03-05T20:25:30.896Z,100273.83
2019-03-05T20:27:59.320Z,100277.59
2019-03-05T20:30:28.566Z,100273.22
2019-03-05T20:32:57.037Z,100271.89
2019-03-05T20:35:25.677Z,100271.81
2019-03-05T20:37:54.098Z,100273.77
2019-03-05T20:40:28.475Z,100272.05
2019-03-05T20:42:57.062Z,99928.12
2019-03-05T20:45:39.534Z,100281.27
2019-03-05T20:48:08.022Z,100284.26
2019-03-05T20:50:36.576Z,100280.36
2019-03-05T20:53:05.229Z,100280.39
2019-03-05T20:55:33.729Z,100284.97
2019-03-05T20:58:02.210Z,100282.74
2019-03-05T21:00:32.362Z,100276.86
2019-03-05T21:03:02.649Z,100286.23
2019-03-05T21:05:34.395Z,100279.47
2019-03-05T21:10:51.292Z,100276.52
2019-03-05T21:13:19.871Z,100275.66
2019-03-05T21:15:48.288Z,100272.96
2019-03-05T21:18:19.794Z,100277.60
2019-03-05T21:20:48.255Z,100271.19
2019-03-05T21:23:16.913Z,100273.73
2019-03-05T21:25:45.498Z,100279.31
2019-03-05T21:28:13.980Z,100273.79
2019-03-05T21:30:42.401Z,100280.97
2019-03-05T21:33:10.823Z,100277.95
2019-03-05T21:35:39.583Z,100272.45
2019-03-05T21:41:04.383Z,100274.20
2019-03-05T21:43:33.178Z,100274.20
2019-03-05T21:46:04.635Z,100273.28
2019-03-05T21:48:33.205Z,100276.23
2019-03-05T21:51:01.907Z,100277.92
2019-03-05T21:53:30.357Z,100279.55
2019-03-05T21:55:58.897Z,100279.52
2019-03-05T21:58:27.324Z,100277.84
2019-03-05T22:00:55.806Z,100279.17
2019-03-05T22:03:24.226Z,100280.85
2019-03-05T22:05:52.666Z,100280.44
2019-03-05T22:08:21.157Z,100269.89
2019-03-05T22:10:51.498Z,100272.05
2019-03-05T22:13:19.826Z,100271.66
2019-03-05T22:15:48.250Z,100281.36
2019-03-05T22:18:16.718Z,100274.14
2019-03-05T22:20:45.373Z,100278.37
2019-03-05T22:23:13.808Z,100276.23
2019-03-05T22:25:42.226Z,100271.13
2019-03-05T22:28:10.615Z,100272.02
2019-03-05T22:30:39.683Z,100269.48
2019-03-05T22:33:08.360Z,100270.36
2019-03-05T22:35:36.849Z,100263.21
2019-03-05T22:38:05.416Z,100268.33
2019-03-05T22:40:33.921Z,100259.84
2019-03-05T22:43:02.380Z,100266.20
2019-03-05T22:45:32.612Z,100266.61
2019-03-05T22:48:01.104Z,100260.28
2019-03-05T22:50:29.565Z,100264.22
2019-03-05T22:52:59.499Z,100262.15
2019-03-05T22:55:28.059Z,100259.22
2019-03-05T22:57:56.710Z,100263.09
2019-03-05T23:00:46.597Z,100263.09
2019-03-05T23:03:18.051Z,100257.63
2019-03-05T23:05:46.463Z,100269.95
2019-03-05T23:08:14.899Z,100264.86
2019-03-05T23:10:43.343Z,100264.86
2019-03-05T23:13:12.593Z,100262.34
2019-03-05T23:15:41.093Z,100264.95
2019-03-05T23:18:09.496Z,100259.04
2019-03-05T23:20:38.041Z,100258.66
2019-03-05T23:23:06.475Z,100254.02
2019-03-05T23:25:34.936Z,100254.87
2019-03-05T23:28:03.789Z,99760.27
2019-03-05T23:30:32.314Z,100236.68
2019-03-05T23:33:00.715Z,100234.61
2019-03-05T23:35:29.134Z,100233.36
2019-03-05T23:37:57.536Z,100231.28
2019-03-05T23:40:25.921Z,100228.36
2019-03-05T23:42:54.331Z,100227.14
2019-03-05T23:45:22.891Z,100228.00
2019-03-05T23:47:51.323Z,100223.77
2019-03-05T23:50:19.727Z,100222.97
2019-03-05T23:52:48.116Z,100223.84
2019-03-05T23:55:17.484Z,100221.74
2019-03-05T23:57:46.514Z,100211.59
